Time;durP1;ratioP1;P1;durP2;ratioP2;P2;SDS_P1;SDS_P2;PMS_P1;PMS_P2;Temp;Humidity;BMP_temperature;BMP_pressure;BME280_temperature;BME280_humidity;BME280_pressure;Samples;Min_cycle;Max_cycle;Signal;HPM_P1;HPM_P2
2023/09/18 00:02:07;;;;;;;7.10;3.03;;;16.30;99.90;;;;;;5070703;28;20040;-58
2023/09/18 00:04:34;;;;;;;4.93;3.20;;;16.20;99.90;;;;;;5058215;28;20464;-59
2023/09/18 00:07:01;;;;;;;8.43;4.25;;;16.10;99.90;;;;;;5071028;28;20049;-60
2023/09/18 00:09:28;;;;;;;8.80;4.60;;;16.00;99.90;;;;;;5062840;28;20045;-59
2023/09/18 00:11:55;;;;;;;10.25;4.25;;;16.10;99.90;;;;;;5064482;28;20047;-59
2023/09/18 00:14:21;;;;;;;8.65;4.32;;;16.20;99.90;;;;;;5066862;28;20508;-59
2023/09/18 00:16:48;;;;;;;7.32;4.70;;;16.30;99.90;;;;;;5071058;28;20040;-60
2023/09/18 00:19:25;;;;;;;5.72;3.95;;;16.20;99.90;;;;;;5069729;28;20378;-60
2023/09/18 00:21:52;;;;;;;9.50;4.18;;;16.20;99.90;;;;;;5070782;28;20054;-57
2023/09/18 00:24:19;;;;;;;9.95;3.97;;;16.00;99.90;;;;;;5069743;28;20186;-60
2023/09/18 00:26:47;;;;;;;6.82;3.85;;;16.10;99.90;;;;;;5069404;28;20044;-60
2023/09/18 00:29:14;;;;;;;10.90;4.05;;;16.10;99.90;;;;;;5070671;28;20110;-60
2023/09/18 00:31:41;;;;;;;6.78;4.00;;;16.20;99.90;;;;;;5071184;28;20046;-60
2023/09/18 00:34:09;;;;;;;10.07;4.63;;;16.20;99.90;;;;;;5066606;28;20037;-59
2023/09/18 00:36:36;;;;;;;8.23;4.60;;;16.20;99.90;;;;;;5061498;28;20041;-59
2023/09/18 00:39:04;;;;;;;14.60;4.05;;;16.20;99.90;;;;;;5066617;28;20045;-60
2023/09/18 00:41:30;;;;;;;6.05;4.30;;;16.20;99.90;;;;;;5069242;28;20037;-61
2023/09/18 00:43:57;;;;;;;14.95;4.25;;;16.20;99.90;;;;;;5070951;28;20505;-60
2023/09/18 00:46:26;;;;;;;7.68;3.88;;;16.20;99.90;;;;;;5057730;28;20045;-59
2023/09/18 00:48:54;;;;;;;10.00;4.35;;;16.10;99.90;;;;;;5064934;28;20062;-59
2023/09/18 00:51:22;;;;;;;9.10;4.30;;;16.10;99.90;;;;;;5059705;28;20132;-60
2023/09/18 00:53:49;;;;;;;9.05;4.30;;;16.10;99.90;;;;;;5070179;28;20060;-60
2023/09/18 00:56:20;;;;;;;7.15;4.05;;;16.10;99.90;;;;;;5066505;28;20041;-57
2023/09/18 00:58:50;;;;;;;8.55;3.38;;;16.10;99.90;;;;;;5069178;28;20481;-60
2023/09/18 01:01:22;;;;;;;7.72;4.10;;;16.10;99.90;;;;;;5061213;28;20132;-60
2023/09/18 01:03:51;;;;;;;8.85;4.05;;;16.10;99.90;;;;;;5070079;28;20040;-60
2023/09/18 01:06:20;;;;;;;5.63;3.75;;;16.10;99.90;;;;;;5069944;28;20048;-59
2023/09/18 01:08:50;;;;;;;6.07;4.10;;;16.10;99.90;;;;;;5056917;28;20052;-60
2023/09/18 01:12:03;;;;;;;7.65;3.95;;;16.00;99.90;;;;;;5065883;28;20055;-58
2023/09/18 01:14:42;;;;;;;6.68;4.20;;;16.00;99.90;;;;;;5069997;28;20049;-59
2023/09/18 01:17:10;;;;;;;6.78;4.40;;;15.90;99.90;;;;;;5056902;28;20041;-60
2023/09/18 01:19:45;;;;;;;7.35;4.13;;;15.90;99.90;;;;;;5061712;28;20127;-58
2023/09/18 01:22:15;;;;;;;7.78;4.95;;;15.90;99.90;;;;;;5068840;28;20295;-59
2023/09/18 01:24:42;;;;;;;7.35;3.97;;;16.00;99.90;;;;;;5054035;28;20412;-60
2023/09/18 01:27:13;;;;;;;8.18;4.80;;;16.00;99.90;;;;;;5057971;28;20409;-60
2023/09/18 01:29:40;;;;;;;5.50;3.65;;;16.00;99.90;;;;;;5071691;28;20040;-59
2023/09/18 01:32:06;;;;;;;;;;;16.00;99.90;;;;;;5071803;28;20041;-60
2023/09/18 01:34:37;;;;;;;6.97;4.20;;;16.00;99.90;;;;;;5073834;28;20394;-60
2023/09/18 01:37:05;;;;;;;6.95;4.40;;;16.10;99.90;;;;;;5062817;28;20048;-59
2023/09/18 01:39:34;;;;;;;6.75;4.45;;;16.00;99.90;;;;;;5072868;28;20052;-59
2023/09/18 01:42:06;;;;;;;6.20;3.75;;;16.00;99.90;;;;;;5072400;28;20040;-61
2023/09/18 01:44:34;;;;;;;7.00;3.83;;;16.00;99.90;;;;;;5072929;28;20048;-59
2023/09/18 01:47:06;;;;;;;7.18;3.78;;;15.90;99.90;;;;;;5069446;28;20047;-59
2023/09/18 01:49:35;;;;;;;6.90;3.72;;;16.00;99.90;;;;;;5073661;28;20080;-59
2023/09/18 01:52:03;;;;;;;8.25;4.45;;;16.00;99.90;;;;;;5073836;28;20044;-57
2023/09/18 01:54:31;;;;;;;6.88;4.00;;;15.90;99.90;;;;;;5065156;28;20059;-59
2023/09/18 01:56:58;;;;;;;6.70;3.70;;;15.80;99.90;;;;;;5072775;28;20060;-59
2023/09/18 01:59:25;;;;;;;7.60;3.45;;;15.70;99.90;;;;;;5059049;28;20047;-57
2023/09/18 02:01:53;;;;;;;7.88;3.40;;;15.60;99.90;;;;;;5052537;28;20041;-59
2023/09/18 02:04:22;;;;;;;5.18;3.70;;;15.40;99.90;;;;;;5069504;28;20037;-60
2023/09/18 02:07:09;;;;;;;6.95;4.18;;;15.40;99.90;;;;;;5064126;28;20481;-59
2023/09/18 02:09:36;;;;;;;8.80;4.13;;;15.30;99.90;;;;;;5066263;28;20127;-60
2023/09/18 02:12:04;;;;;;;12.00;4.20;;;15.30;99.90;;;;;;5073543;28;20072;-60
2023/09/18 02:14:31;;;;;;;7.82;4.30;;;15.30;99.90;;;;;;5073591;28;20037;-59
2023/09/18 02:16:58;;;;;;;12.27;3.90;;;15.40;99.90;;;;;;5063177;28;20077;-59
2023/09/18 02:19:26;;;;;;;11.13;3.95;;;15.40;99.90;;;;;;5060447;28;20069;-59
2023/09/18 02:21:55;;;;;;;6.10;3.95;;;15.40;99.90;;;;;;5070836;28;20032;-60
2023/09/18 02:24:23;;;;;;;5.15;4.10;;;15.40;99.90;;;;;;5071965;28;20053;-58
2023/09/18 02:26:50;;;;;;;9.30;4.60;;;15.40;99.90;;;;;;5064768;28;20043;-60
2023/09/18 02:29:17;;;;;;;10.60;5.38;;;15.40;99.90;;;;;;5064969;28;20049;-60
2023/09/18 02:31:44;;;;;;;7.40;4.10;;;15.40;99.90;;;;;;5062259;28;20135;-60
2023/09/18 02:34:11;;;;;;;9.70;4.00;;;15.30;99.90;;;;;;5071652;28;20044;-59
2023/09/18 02:36:37;;;;;;;5.05;3.85;;;15.30;99.90;;;;;;5063350;28;20490;-61
2023/09/18 02:39:04;;;;;;;7.25;3.88;;;15.30;99.90;;;;;;5072065;28;20045;-60
2023/09/18 02:41:31;;;;;;;8.20;4.00;;;15.30;99.90;;;;;;5068956;28;20048;-60
2023/09/18 02:43:58;;;;;;;7.50;4.13;;;15.40;99.90;;;;;;5063473;28;20406;-59
2023/09/18 02:46:25;;;;;;;7.72;3.78;;;15.60;99.90;;;;;;5071725;28;20481;-60
2023/09/18 02:48:52;;;;;;;9.52;4.40;;;15.70;99.90;;;;;;5060294;28;20508;-58
2023/09/18 02:51:19;;;;;;;9.15;4.35;;;15.70;99.90;;;;;;5071396;28;20040;-60
2023/09/18 02:53:46;;;;;;;9.07;3.75;;;15.70;99.90;;;;;;5071224;28;20135;-61
2023/09/18 02:56:13;;;;;;;10.00;3.90;;;15.80;99.90;;;;;;5073201;28;20124;-58
2023/09/18 02:58:41;;;;;;;8.07;3.97;;;15.70;99.90;;;;;;5069700;28;20047;-57
2023/09/18 03:01:08;;;;;;;10.95;4.82;;;15.70;99.90;;;;;;5072723;28;20050;-60
2023/09/18 03:03:35;;;;;;;5.78;4.07;;;15.70;99.90;;;;;;5069537;28;20453;-59
2023/09/18 03:06:03;;;;;;;;;;;15.60;99.90;;;;;;5071794;28;20620;-59
2023/09/18 03:08:30;;;;;;;6.57;3.75;;;15.70;99.90;;;;;;5070355;28;19927;-60
2023/09/18 03:10:57;;;;;;;5.25;3.50;;;15.70;99.90;;;;;;5067500;28;20045;-59
2023/09/18 03:13:27;;;;;;;9.48;3.90;;;15.80;99.90;;;;;;5059045;28;20049;-60
2023/09/18 03:15:55;;;;;;;5.20;3.88;;;15.80;99.90;;;;;;5062961;28;20044;-59
2023/09/18 03:18:23;;;;;;;9.15;4.13;;;15.80;99.90;;;;;;5062991;28;20053;-60
2023/09/18 03:20:50;;;;;;;6.03;3.75;;;15.80;99.90;;;;;;5061711;28;20044;-61
2023/09/18 03:23:17;;;;;;;7.68;4.10;;;15.80;99.90;;;;;;5061944;28;20047;-60
2023/09/18 03:25:44;;;;;;;6.32;3.65;;;15.80;99.90;;;;;;5061952;28;20047;-60
2023/09/18 03:28:16;;;;;;;4.85;3.42;;;15.80;99.90;;;;;;5061767;28;20048;-60
2023/09/18 03:30:44;;;;;;;7.40;4.75;;;15.70;99.90;;;;;;5059608;28;20052;-61
2023/09/18 03:33:11;;;;;;;8.45;4.35;;;15.60;99.90;;;;;;5061672;28;20037;-60
2023/09/18 03:35:54;;;;;;;10.02;4.32;;;15.40;99.90;;;;;;5058426;28;20064;-61
2023/09/18 03:38:24;;;;;;;5.80;4.05;;;15.30;99.90;;;;;;5062552;28;20072;-57
2023/09/18 03:40:51;;;;;;;7.82;3.72;;;15.20;99.90;;;;;;5058829;28;20444;-60
2023/09/18 03:43:19;;;;;;;5.68;3.33;;;15.30;99.90;;;;;;5058616;28;20481;-59
2023/09/18 03:45:47;;;;;;;6.63;3.53;;;15.40;99.90;;;;;;5059554;28;20033;-60
2023/09/18 03:48:14;;;;;;;7.22;4.38;;;15.50;99.90;;;;;;5053985;28;20106;-58
2023/09/18 03:50:42;;;;;;;6.53;4.05;;;15.40;99.90;;;;;;5055388;28;20040;-60
2023/09/18 03:53:09;;;;;;;13.75;4.25;;;15.30;99.90;;;;;;5061885;28;20037;-59
2023/09/18 03:55:37;;;;;;;;;;;15.20;99.90;;;;;;5059483;28;20094;-62
2023/09/18 03:58:05;;;;;;;5.07;3.87;;;15.10;99.90;;;;;;5058605;28;19978;-60
2023/09/18 04:00:31;;;;;;;;;;;15.10;99.90;;;;;;5061816;28;20314;-59
2023/09/18 04:02:59;;;;;;;6.28;3.65;;;15.20;99.90;;;;;;5057154;28;19920;-57
2023/09/18 04:05:26;;;;;;;7.65;4.05;;;15.30;99.90;;;;;;5059588;28;20075;-57
2023/09/18 04:07:56;;;;;;;8.00;4.28;;;15.30;99.90;;;;;;5060303;28;20044;-60
2023/09/18 04:10:22;;;;;;;6.40;3.83;;;15.40;99.90;;;;;;5061936;28;20037;-58
2023/09/18 04:12:51;;;;;;;9.55;3.65;;;15.40;99.90;;;;;;5060654;28;20041;-58
2023/09/18 04:15:19;;;;;;;7.68;3.60;;;15.50;99.90;;;;;;5066363;28;20052;-60
2023/09/18 04:17:46;;;;;;;5.60;3.83;;;15.50;99.90;;;;;;5070023;28;20040;-60
2023/09/18 04:20:14;;;;;;;;;;;15.40;99.90;;;;;;5061788;28;20052;-59
2023/09/18 04:22:49;;;;;;;7.40;3.23;;;15.40;99.90;;;;;;5058396;28;20433;-61
2023/09/18 04:25:19;;;;;;;6.05;3.83;;;15.40;99.90;;;;;;5069940;28;20036;-60
2023/09/18 04:27:49;;;;;;;7.28;3.70;;;15.30;99.90;;;;;;5052686;28;20040;-62
2023/09/18 04:30:19;;;;;;;10.32;4.20;;;15.20;99.90;;;;;;5067836;28;20509;-61
2023/09/18 04:32:46;;;;;;;8.95;3.72;;;15.10;99.90;;;;;;5058963;28;20041;-59
2023/09/18 04:35:13;;;;;;;;;;;15.00;99.90;;;;;;5070375;28;20051;-61
2023/09/18 04:37:40;;;;;;;6.43;3.60;;;14.90;99.90;;;;;;5061499;28;19920;-60
2023/09/18 04:40:12;;;;;;;8.90;3.95;;;14.80;99.90;;;;;;5061173;28;20044;-61
2023/09/18 04:42:40;;;;;;;7.25;4.18;;;14.70;99.90;;;;;;5066629;28;20032;-59
2023/09/18 04:45:08;;;;;;;8.68;4.18;;;14.60;99.90;;;;;;5065565;28;20056;-62
2023/09/18 04:47:36;;;;;;;7.10;4.07;;;14.50;99.90;;;;;;5053492;28;20074;-61
2023/09/18 04:50:06;;;;;;;;;;;14.40;99.90;;;;;;5044540;28;20033;-60
2023/09/18 04:52:37;;;;;;;7.22;3.90;;;14.40;99.90;;;;;;5069714;28;19931;-61
2023/09/18 04:55:06;;;;;;;;;;;14.40;99.90;;;;;;5044174;28;20044;-60
2023/09/18 04:57:33;;;;;;;8.63;4.20;;;14.70;99.90;;;;;;5073131;28;19921;-61
2023/09/18 05:00:01;;;;;;;9.38;3.85;;;14.80;99.90;;;;;;5064609;28;20401;-62
2023/09/18 05:02:43;;;;;;;8.38;3.83;;;15.00;99.90;;;;;;5069964;28;20090;-61
2023/09/18 05:05:11;;;;;;;9.80;4.47;;;15.10;99.90;;;;;;5072999;28;20066;-61
2023/09/18 05:07:38;;;;;;;7.57;4.40;;;15.10;99.90;;;;;;5072178;28;20036;-60
2023/09/18 05:10:05;;;;;;;10.00;4.13;;;14.90;99.90;;;;;;5065052;28;20033;-60
2023/09/18 05:12:32;;;;;;;8.57;4.20;;;14.90;99.90;;;;;;5065864;28;20048;-61
2023/09/18 05:14:59;;;;;;;11.05;4.30;;;14.90;99.90;;;;;;5073169;28;20091;-60
2023/09/18 05:17:51;;;;;;;8.85;4.20;;;14.80;99.90;;;;;;5074367;28;20127;-60
2023/09/18 05:20:19;;;;;;;8.68;4.57;;;14.80;99.90;;;;;;5054279;28;20079;-60
2023/09/18 05:22:46;;;;;;;;;;;14.70;99.90;;;;;;5063549;28;20090;-60
2023/09/18 05:25:15;;;;;;;8.30;4.00;;;14.60;99.90;;;;;;5062190;28;19928;-60
2023/09/18 05:27:45;;;;;;;8.60;4.38;;;14.80;99.90;;;;;;5062885;28;20079;-62
2023/09/18 05:30:14;;;;;;;8.82;4.22;;;14.90;99.90;;;;;;5065895;28;20068;-61
2023/09/18 05:32:43;;;;;;;8.57;4.50;;;15.00;99.90;;;;;;5074055;28;20045;-61
2023/09/18 05:35:12;;;;;;;7.25;3.88;;;15.10;99.90;;;;;;5065764;28;20060;-60
2023/09/18 05:37:40;;;;;;;8.55;4.18;;;15.20;99.90;;;;;;5074625;28;20036;-60
2023/09/18 05:40:09;;;;;;;;;;;15.20;99.90;;;;;;5066239;28;20032;-61
2023/09/18 05:42:37;;;;;;;6.10;3.78;;;15.20;99.90;;;;;;5073957;28;20005;-61
2023/09/18 05:45:05;;;;;;;9.05;4.25;;;15.20;99.90;;;;;;5073087;28;20127;-61
2023/09/18 05:47:33;;;;;;;6.68;3.80;;;15.30;99.90;;;;;;5072409;28;20040;-58
2023/09/18 05:50:00;;;;;;;8.85;4.22;;;15.40;99.90;;;;;;5070338;28;20036;-59
2023/09/18 05:52:27;;;;;;;6.47;3.97;;;15.40;99.90;;;;;;5073643;28;20041;-59
2023/09/18 05:54:54;;;;;;;8.73;4.30;;;15.50;99.90;;;;;;5072661;28;20052;-58
2023/09/18 05:57:20;;;;;;;10.18;3.95;;;15.50;99.90;;;;;;5074278;28;20044;-59
2023/09/18 05:59:47;;;;;;;11.13;4.18;;;15.50;99.90;;;;;;5065790;28;20532;-59
2023/09/18 06:02:16;;;;;;;11.40;4.13;;;15.50;99.90;;;;;;5073248;28;20124;-58
2023/09/18 06:04:44;;;;;;;8.07;4.10;;;15.60;99.90;;;;;;5073379;28;20040;-57
2023/09/18 06:07:12;;;;;;;7.78;4.40;;;15.70;99.90;;;;;;5062094;28;20041;-59
2023/09/18 06:09:39;;;;;;;13.18;5.35;;;15.70;99.90;;;;;;5067981;28;20040;-59
2023/09/18 06:12:07;;;;;;;5.82;4.10;;;15.80;99.90;;;;;;5071199;28;20075;-60
2023/09/18 06:14:34;;;;;;;9.98;4.43;;;15.90;99.90;;;;;;5071589;28;20039;-59
2023/09/18 06:17:01;;;;;;;10.60;4.75;;;16.00;99.90;;;;;;5072086;28;20555;-59
2023/09/18 06:19:28;;;;;;;7.10;3.80;;;16.00;99.90;;;;;;5073054;28;20049;-59
2023/09/18 06:21:55;;;;;;;7.88;4.65;;;16.10;99.90;;;;;;5063447;28;20127;-60
2023/09/18 06:24:22;;;;;;;8.50;3.88;;;16.20;99.90;;;;;;5073344;28;20413;-57
2023/09/18 06:26:50;;;;;;;8.38;4.38;;;16.20;99.90;;;;;;5072680;28;20036;-60
2023/09/18 06:29:17;;;;;;;7.78;3.95;;;16.40;99.90;;;;;;5066317;28;20036;-60
2023/09/18 06:31:44;;;;;;;7.88;3.67;;;16.40;99.90;;;;;;5072193;28;20185;-59
2023/09/18 06:34:11;;;;;;;8.65;3.90;;;16.50;99.90;;;;;;5072218;28;20040;-60
2023/09/18 06:36:37;;;;;;;5.85;4.15;;;16.60;99.90;;;;;;5066078;28;20041;-60
2023/09/18 06:39:04;;;;;;;9.52;4.35;;;16.70;99.90;;;;;;5071376;28;20051;-61
2023/09/18 06:41:32;;;;;;;11.02;3.92;;;16.80;99.90;;;;;;5072130;28;20039;-59
2023/09/18 06:44:02;;;;;;;10.75;3.92;;;16.80;99.90;;;;;;5072610;28;20032;-58
2023/09/18 06:46:30;;;;;;;10.13;4.63;;;16.80;99.90;;;;;;5069177;28;20385;-59
2023/09/18 06:48:56;;;;;;;7.80;3.65;;;16.80;99.90;;;;;;5072549;28;20417;-58
2023/09/18 06:51:23;;;;;;;8.77;3.67;;;16.80;99.90;;;;;;5068954;28;20051;-60
2023/09/18 06:54:08;;;;;;;6.00;4.38;;;16.80;99.90;;;;;;5072464;28;20036;-61
2023/09/18 06:56:35;;;;;;;6.65;3.80;;;16.80;99.90;;;;;;5072114;28;20111;-59
2023/09/18 06:59:02;;;;;;;9.52;3.90;;;16.90;99.90;;;;;;5072380;28;20496;-61
2023/09/18 07:01:31;;;;;;;11.50;3.80;;;16.90;99.90;;;;;;5068638;28;20032;-59
2023/09/18 07:03:59;;;;;;;13.80;4.28;;;16.90;99.90;;;;;;5072335;28;20071;-59
2023/09/18 07:06:27;;;;;;;8.52;4.07;;;16.90;99.90;;;;;;5072031;28;20125;-59
2023/09/18 07:08:53;;;;;;;9.45;3.95;;;17.00;99.90;;;;;;5072042;28;20044;-60
2023/09/18 07:11:21;;;;;;;6.00;3.80;;;17.20;99.90;;;;;;5066766;28;20098;-58
2023/09/18 07:13:51;;;;;;;12.80;4.25;;;17.40;99.90;;;;;;5072257;28;20040;-60
2023/09/18 07:16:18;;;;;;;11.48;3.90;;;17.60;99.90;;;;;;5056941;28;20059;-59
2023/09/18 07:18:45;;;;;;;10.82;4.13;;;17.80;99.90;;;;;;5058471;28;20041;-58
2023/09/18 07:21:11;;;;;;;9.32;4.07;;;17.90;99.90;;;;;;5070079;28;20447;-58
2023/09/18 07:23:40;;;;;;;8.05;3.85;;;18.00;99.90;;;;;;5071164;28;20103;-59
2023/09/18 07:26:07;;;;;;;9.27;3.88;;;18.10;99.90;;;;;;5071441;28;20051;-59
2023/09/18 07:28:34;;;;;;;9.35;4.50;;;18.30;99.90;;;;;;5065185;28;20040;-60
2023/09/18 07:31:06;;;;;;;8.13;4.25;;;18.40;99.90;;;;;;5071505;28;20388;-59
2023/09/18 07:33:33;;;;;;;10.18;3.63;;;18.60;99.90;;;;;;5071968;28;20393;-59
2023/09/18 07:36:00;;;;;;;6.57;3.72;;;18.60;99.90;;;;;;5064828;28;20083;-60
2023/09/18 07:38:26;;;;;;;8.02;3.92;;;18.70;99.90;;;;;;5071748;28;20044;-61
2023/09/18 07:40:53;;;;;;;13.88;4.28;;;18.80;99.90;;;;;;5070979;28;20040;-59
2023/09/18 07:43:24;;;;;;;9.10;3.47;;;18.90;99.90;;;;;;5063622;28;20037;-60
2023/09/18 07:45:53;;;;;;;9.82;4.20;;;18.80;99.90;;;;;;5071200;28;20068;-58
2023/09/18 07:48:22;;;;;;;11.93;3.75;;;18.90;99.90;;;;;;5071646;28;20297;-61
2023/09/18 07:50:49;;;;;;;12.45;3.78;;;18.90;99.90;;;;;;5057453;28;20041;-58
2023/09/18 07:53:18;;;;;;;7.38;4.22;;;19.10;99.90;;;;;;5051410;28;20124;-60
2023/09/18 07:55:47;;;;;;;6.80;3.10;;;19.20;99.90;;;;;;5061181;28;20040;-59
2023/09/18 07:58:13;;;;;;;10.00;4.32;;;19.30;99.90;;;;;;5055882;28;20040;-59
2023/09/18 08:00:40;;;;;;;7.05;4.15;;;19.50;99.90;;;;;;5049948;28;20048;-59
2023/09/18 08:03:07;;;;;;;8.95;3.67;;;19.50;99.90;;;;;;5061040;28;20044;-59
2023/09/18 08:05:34;;;;;;;8.80;4.15;;;19.70;99.90;;;;;;5070098;28;20037;-60
2023/09/18 08:08:04;;;;;;;13.02;4.25;;;19.90;99.90;;;;;;5069965;28;20561;-60
2023/09/18 08:10:31;;;;;;;14.82;4.22;;;20.00;99.90;;;;;;5071152;28;20037;-59
2023/09/18 08:12:58;;;;;;;7.45;3.75;;;20.20;99.90;;;;;;5067691;28;20037;-61
2023/09/18 08:15:25;;;;;;;8.60;4.05;;;20.30;99.90;;;;;;5071105;28;20123;-61
2023/09/18 08:17:53;;;;;;;12.68;4.57;;;20.50;99.90;;;;;;5070863;28;20040;-60
2023/09/18 08:20:20;;;;;;;10.35;4.10;;;20.60;99.90;;;;;;5062391;28;20043;-60
2023/09/18 08:22:48;;;;;;;;;;;20.60;99.90;;;;;;5071308;28;20047;-57
2023/09/18 08:25:15;;;;;;;8.48;3.88;;;20.70;99.90;;;;;;5070791;28;19921;-60
2023/09/18 08:27:43;;;;;;;10.93;4.20;;;20.70;99.90;;;;;;5065179;28;20043;-60
2023/09/18 08:30:13;;;;;;;7.63;4.03;;;20.70;99.90;;;;;;5070693;28;20131;-57
2023/09/18 08:32:41;;;;;;;15.18;4.57;;;20.70;99.90;;;;;;5068008;28;20443;-61
2023/09/18 08:35:09;;;;;;;9.52;4.93;;;20.90;99.90;;;;;;5068454;28;20041;-60
2023/09/18 08:37:36;;;;;;;7.65;3.90;;;21.10;99.90;;;;;;5070247;28;20393;-60
2023/09/18 08:40:09;;;;;;;9.20;4.75;;;21.20;99.90;;;;;;5070306;28;20383;-59
2023/09/18 08:42:39;;;;;;;10.95;4.60;;;21.30;99.90;;;;;;5062179;28;20516;-61
2023/09/18 08:45:10;;;;;;;15.15;4.15;;;21.40;99.90;;;;;;5070788;28;20056;-58
2023/09/18 08:47:41;;;;;;;10.60;4.53;;;21.50;99.90;;;;;;5070597;28;20037;-60
2023/09/18 08:50:12;;;;;;;9.07;4.45;;;21.70;99.90;;;;;;5068816;28;20083;-58
2023/09/18 08:52:40;;;;;;;12.52;5.10;;;22.00;99.90;;;;;;5063219;28;20040;-59
2023/09/18 08:55:08;;;;;;;12.90;5.13;;;22.30;99.90;;;;;;5070679;28;20059;-58
2023/09/18 08:57:37;;;;;;;11.75;4.63;;;22.60;99.90;;;;;;5070551;28;20150;-59
2023/09/18 09:00:08;;;;;;;13.15;4.20;;;22.70;99.90;;;;;;5070563;28;20423;-61
2023/09/18 09:02:35;;;;;;;9.48;4.20;;;23.00;99.90;;;;;;5070131;28;20075;-60
2023/09/18 09:05:02;;;;;;;7.47;4.47;;;23.10;99.90;;;;;;5070681;28;20299;-59
2023/09/18 09:07:31;;;;;;;9.02;4.50;;;23.20;99.90;;;;;;5070745;28;20050;-57
2023/09/18 09:09:58;;;;;;;17.58;5.72;;;23.30;99.90;;;;;;5066787;28;20413;-59
2023/09/18 09:12:53;;;;;;;11.25;5.25;;;23.20;99.90;;;;;;5070388;28;20519;-59
2023/09/18 09:15:28;;;;;;;15.23;5.03;;;23.20;99.90;;;;;;5065445;28;20036;-59
2023/09/18 09:18:06;;;;;;;8.57;4.65;;;23.30;99.90;;;;;;5070498;28;20041;-59
2023/09/18 09:20:35;;;;;;;10.27;4.63;;;23.40;99.90;;;;;;5070076;28;20049;-60
2023/09/18 09:23:04;;;;;;;8.55;4.40;;;23.60;99.90;;;;;;5066578;28;20040;-59
2023/09/18 09:25:33;;;;;;;9.77;4.85;;;23.90;99.90;;;;;;5069301;28;20036;-59
2023/09/18 09:28:03;;;;;;;16.40;5.47;;;23.90;99.90;;;;;;5068320;28;20123;-56
2023/09/18 09:30:32;;;;;;;13.18;4.63;;;23.80;99.90;;;;;;5061655;28;20469;-58
2023/09/18 09:32:59;;;;;;;9.82;4.50;;;23.80;99.90;;;;;;5069592;28;20067;-59
2023/09/18 09:35:28;;;;;;;12.07;4.82;;;23.60;99.90;;;;;;5058258;28;20416;-59
2023/09/18 09:38:02;;;;;;;8.38;4.78;;;23.60;99.90;;;;;;5057515;28;20044;-58
2023/09/18 09:40:30;;;;;;;12.98;4.88;;;23.60;99.90;;;;;;5068912;28;20041;-60
2023/09/18 09:43:01;;;;;;;13.50;4.85;;;23.50;99.90;;;;;;5064394;28;20464;-58
2023/09/18 09:45:30;;;;;;;12.50;4.80;;;23.60;99.90;;;;;;5072702;28;20117;-56
2023/09/18 09:47:57;;;;;;;12.10;4.88;;;23.70;99.90;;;;;;5073786;28;20052;-59
2023/09/18 09:50:25;;;;;;;13.48;5.03;;;23.60;99.90;;;;;;5073512;28;20045;-56
2023/09/18 09:52:54;;;;;;;12.85;4.78;;;23.50;99.90;;;;;;5068739;28;20371;-58
2023/09/18 09:55:28;;;;;;;15.07;5.43;;;23.50;99.90;;;;;;5073447;28;20044;-59
2023/09/18 09:58:02;;;;;;;13.73;5.55;;;23.40;99.90;;;;;;5073576;28;20041;-59
2023/09/18 10:00:49;;;;;;;16.00;5.45;;;23.40;99.90;;;;;;5067689;28;20040;-60
2023/09/18 10:03:18;;;;;;;15.40;4.60;;;23.40;99.90;;;;;;5073403;28;20582;-57
2023/09/18 10:05:47;;;;;;;12.60;4.80;;;23.40;99.90;;;;;;5068728;28;20065;-59
2023/09/18 10:08:26;;;;;;;8.93;4.80;;;23.50;99.90;;;;;;5073079;28;20123;-60
2023/09/18 10:10:55;;;;;;;14.10;4.55;;;23.70;99.90;;;;;;5072980;28;20385;-59
2023/09/18 10:13:56;;;;;;;14.63;5.18;;;24.00;99.90;;;;;;5070933;28;20398;-60
2023/09/18 10:16:27;;;;;;;17.73;5.18;;;24.60;99.90;;;;;;5071856;28;20040;-58
2023/09/18 10:19:18;;;;;;;24.40;5.03;;;25.10;99.90;;;;;;5073027;28;20536;-58
2023/09/18 10:22:05;;;;;;;13.02;4.68;;;25.30;99.90;;;;;;5073036;28;20040;-59
2023/09/18 10:24:37;;;;;;;15.60;5.50;;;25.40;99.90;;;;;;5066470;28;20079;-60
2023/09/18 10:27:06;;;;;;;16.70;4.55;;;25.40;99.90;;;;;;5073091;28;20036;-59
2023/09/18 10:29:34;;;;;;;13.98;4.38;;;25.20;99.90;;;;;;5067929;28;20043;-59
2023/09/18 10:32:09;;;;;;;18.38;5.43;;;25.00;99.90;;;;;;5072365;28;20044;-60
2023/09/18 10:34:36;;;;;;;21.35;5.05;;;24.70;99.90;;;;;;5064381;28;20043;-59
2023/09/18 10:37:07;;;;;;;16.08;4.50;;;24.40;99.90;;;;;;5065462;28;20047;-58
2023/09/18 10:39:36;;;;;;;20.15;4.25;;;24.00;99.90;;;;;;5072265;28;20417;-59
2023/09/18 10:42:06;;;;;;;20.55;3.67;;;23.70;99.90;;;;;;5072368;28;20102;-58
2023/09/18 10:44:34;;;;;;;22.63;4.20;;;23.40;99.90;;;;;;5072722;28;20044;-58
2023/09/18 10:47:06;;;;;;;18.75;4.25;;;23.20;99.90;;;;;;5067357;28;20036;-58
2023/09/18 10:49:35;;;;;;;16.88;3.67;;;23.10;99.90;;;;;;5071261;28;20048;-60
2023/09/18 10:52:03;;;;;;;16.02;3.88;;;23.00;99.90;;;;;;5072023;28;20041;-57
2023/09/18 10:54:31;;;;;;;14.85;3.60;;;23.10;99.90;;;;;;5072038;28;20036;-59
2023/09/18 10:56:58;;;;;;;11.23;3.40;;;23.10;99.90;;;;;;5067699;28;20037;-58
2023/09/18 10:59:28;;;;;;;17.73;4.10;;;23.10;99.90;;;;;;5072117;28;20068;-59
2023/09/18 11:01:55;;;;;;;11.10;3.20;;;23.00;99.90;;;;;;5072193;28;20055;-59
2023/09/18 11:04:23;;;;;;;15.55;4.57;;;23.00;99.90;;;;;;5070939;28;20040;-58
2023/09/18 11:06:53;;;;;;;12.07;3.65;;;23.00;99.90;;;;;;5072281;28;20549;-59
2023/09/18 11:09:21;;;;;;;11.60;3.63;;;22.90;99.90;;;;;;5066410;28;20052;-59
2023/09/18 11:12:02;;;;;;;12.32;3.53;;;22.80;99.90;;;;;;5071928;28;20046;-60
2023/09/18 11:14:56;;;;;;;15.52;3.75;;;22.70;99.90;;;;;;5071624;28;20071;-58
2023/09/18 11:17:30;;;;;;;11.40;3.35;;;22.50;99.90;;;;;;5058790;28;20118;-58
2023/09/18 11:20:13;;;;;;;18.27;4.10;;;22.50;99.90;;;;;;5066059;28;20045;-57
2023/09/18 11:22:46;;;;;;;14.98;3.80;;;22.60;99.90;;;;;;5062966;28;20044;-56
2023/09/18 11:25:41;;;;;;;17.33;3.58;;;22.70;99.90;;;;;;5072057;28;20515;-57
2023/09/18 11:28:28;;;;;;;21.38;3.35;;;22.80;99.90;;;;;;5059830;28;20052;-60
2023/09/18 11:31:03;;;;;;;11.60;3.25;;;22.90;99.90;;;;;;5071577;28;20521;-58
2023/09/18 11:33:35;;;;;;;15.07;3.67;;;23.00;99.90;;;;;;5071445;28;20277;-55
2023/09/18 11:36:07;;;;;;;13.73;2.90;;;23.10;99.90;;;;;;5058732;28;20493;-60
2023/09/18 11:38:35;;;;;;;20.08;4.18;;;23.20;99.90;;;;;;5070585;28;20047;-60
2023/09/18 11:41:25;;;;;;;14.80;3.17;;;23.20;99.90;;;;;;5071093;28;20043;-59
2023/09/18 11:44:18;;;;;;;10.63;3.20;;;23.20;99.90;;;;;;5071625;28;20107;-60
2023/09/18 11:46:50;;;;;;;15.43;3.35;;;23.20;99.90;;;;;;5064588;28;20540;-60
2023/09/18 11:49:26;;;;;;;11.98;2.90;;;23.30;99.90;;;;;;5052118;28;20048;-61
2023/09/18 11:51:54;;;;;;;12.65;3.95;;;23.30;99.90;;;;;;5060392;28;20092;-59
2023/09/18 11:54:21;;;;;;;12.20;3.65;;;23.30;99.90;;;;;;5052731;28;20055;-58
2023/09/18 11:56:48;;;;;;;;;;;23.30;99.90;;;;;;5056205;28;20045;-59
2023/09/18 11:59:15;;;;;;;16.15;3.75;;;23.30;99.90;;;;;;5050822;28;19920;-58
2023/09/18 12:01:46;;;;;;;14.52;3.75;;;23.20;99.90;;;;;;5053338;28;20314;-59
2023/09/18 12:04:13;;;;;;;17.23;3.38;;;23.10;99.90;;;;;;5062665;28;20049;-59
2023/09/18 12:06:40;;;;;;;;;;;23.10;99.90;;;;;;5070488;28;20094;-58
2023/09/18 12:09:08;;;;;;;16.20;3.45;;;22.90;99.90;;;;;;5070704;28;20011;-58
2023/09/18 12:11:37;;;;;;;13.18;3.70;;;22.80;99.90;;;;;;5067831;28;20056;-59
2023/09/18 12:14:05;;;;;;;15.57;3.88;;;22.70;99.90;;;;;;5065473;28;20397;-59
2023/09/18 12:16:40;;;;;;;24.63;4.35;;;22.50;99.90;;;;;;5070647;28;20036;-59
2023/09/18 12:19:07;;;;;;;11.80;3.97;;;22.30;99.90;;;;;;5069993;28;20047;-58
2023/09/18 12:21:41;;;;;;;22.25;4.47;;;22.10;99.90;;;;;;5059679;28;20037;-60
2023/09/18 12:24:14;;;;;;;16.38;3.97;;;22.00;99.90;;;;;;5071163;28;20098;-59
2023/09/18 12:26:41;;;;;;;18.25;4.07;;;21.90;99.90;;;;;;5070849;28;20059;-59
2023/09/18 12:29:08;;;;;;;17.02;4.38;;;21.80;99.90;;;;;;5070801;28;20048;-58
2023/09/18 12:31:35;;;;;;;16.77;3.42;;;21.80;99.90;;;;;;5068371;28;20053;-58
2023/09/18 12:34:02;;;;;;;14.90;3.45;;;21.80;99.90;;;;;;5071368;28;20127;-59
2023/09/18 12:36:30;;;;;;;18.40;4.43;;;21.80;99.90;;;;;;5069148;28;20072;-59
2023/09/18 12:38:58;;;;;;;12.65;3.85;;;21.80;99.90;;;;;;5070598;28;20036;-60
2023/09/18 12:41:26;;;;;;;14.13;3.28;;;21.80;99.90;;;;;;5070318;28;20041;-59
2023/09/18 12:43:59;;;;;;;21.35;3.63;;;21.80;99.90;;;;;;5065164;28;20416;-59
2023/09/18 12:46:27;;;;;;;8.63;3.72;;;21.70;99.90;;;;;;5061349;28;20402;-58
2023/09/18 12:48:53;;;;;;;11.20;3.33;;;21.60;99.90;;;;;;5060518;28;20432;-59
2023/09/18 12:51:31;;;;;;;6.32;2.10;;;21.50;99.90;;;;;;5069444;28;20049;-59
2023/09/18 12:54:06;;;;;;;9.07;2.33;;;21.40;99.90;;;;;;5070114;28;20128;-60
2023/09/18 12:56:40;;;;;;;7.47;2.00;;;21.30;99.90;;;;;;5067985;28;20558;-60
2023/09/18 12:59:07;;;;;;;6.40;1.60;;;21.20;99.90;;;;;;5070016;28;20048;-62